Time;durP1;ratioP1;P1;durP2;ratioP2;P2;SDS_P1;SDS_P2;PMS_P1;PMS_P2;Temp;Humidity;BMP_temperature;BMP_pressure;BME280_temperature;BME280_humidity;BME280_pressure;Samples;Min_cycle;Max_cycle;Signal;HPM_P1;HPM_P2
2023/05/27 00:01:39;;;;;;;8.43;3.90;;;;;;;;;;5082226;28;20203;-77
2023/05/27 00:04:11;;;;;;;13.97;4.67;;;;;;;;;;5083930;28;20188;-76
2023/05/27 00:06:40;;;;;;;10.47;4.23;;;;;;;;;;5078607;28;20280;-76
2023/05/27 00:09:09;;;;;;;11.53;4.00;;;;;;;;;;5081195;28;20219;-77
2023/05/27 00:11:36;;;;;;;8.83;4.20;;;;;;;;;;5080061;28;20188;-77
2023/05/27 00:14:02;;;;;;;11.70;4.27;;;;;;;;;;5075794;28;20267;-76
2023/05/27 00:16:29;;;;;;;11.97;4.33;;;;;;;;;;5075434;28;20189;-76
2023/05/27 00:19:01;;;;;;;13.13;4.70;;;;;;;;;;5078588;28;20295;-76
2023/05/27 00:21:30;;;;;;;12.80;4.10;;;;;;;;;;5077123;28;20190;-76
2023/05/27 00:24:00;;;;;;;10.10;3.80;;;;;;;;;;5079538;28;20256;-76
2023/05/27 00:26:29;;;;;;;11.23;3.87;;;;;;;;;;5078397;28;20172;-76
2023/05/27 00:28:56;;;;;;;10.70;4.20;;;;;;;;;;5062329;28;20208;-76
2023/05/27 00:31:25;;;;;;;10.27;4.13;;;;;;;;;;5081408;28;20173;-76
2023/05/27 00:33:52;;;;;;;10.13;3.87;;;;;;;;;;5069175;28;20180;-76
2023/05/27 00:36:19;;;;;;;11.33;4.07;;;;;;;;;;5065745;28;20177;-76
2023/05/27 00:38:45;;;;;;;12.97;4.60;;;;;;;;;;5077077;28;20193;-76
2023/05/27 00:41:12;;;;;;;8.73;3.70;;;;;;;;;;5076440;28;20188;-76
2023/05/27 00:43:39;;;;;;;11.07;4.17;;;;;;;;;;5077665;28;20538;-76
2023/05/27 00:46:08;;;;;;;11.23;4.23;;;;;;;;;;5082611;28;20299;-76
2023/05/27 00:48:34;;;;;;;6.73;3.30;;;;;;;;;;5072554;28;20530;-77
2023/05/27 00:51:01;;;;;;;10.33;3.77;;;;;;;;;;5085385;28;20207;-76
2023/05/27 00:53:35;;;;;;;12.33;4.57;;;;;;;;;;5076523;28;20204;-76
2023/05/27 00:56:01;;;;;;;12.97;4.67;;;;;;;;;;5071274;28;20260;-76
2023/05/27 00:58:30;;;;;;;10.90;4.57;;;;;;;;;;5077603;28;20422;-76
2023/05/27 01:00:58;;;;;;;12.77;4.17;;;;;;;;;;5075721;28;20703;-76
2023/05/27 01:03:25;;;;;;;9.57;4.20;;;;;;;;;;5099416;28;20176;-77
2023/05/27 01:05:55;;;;;;;8.57;3.93;;;;;;;;;;5090502;28;20225;-76
2023/05/27 01:08:47;;;;;;;11.43;4.17;;;;;;;;;;5070446;28;20209;-77
2023/05/27 01:11:16;;;;;;;10.93;4.23;;;;;;;;;;5086476;28;20284;-76
2023/05/27 01:13:55;;;;;;;18.20;4.53;;;;;;;;;;5065682;28;20306;-76
2023/05/27 01:16:30;;;;;;;11.37;4.40;;;;;;;;;;5077279;28;20235;-77
2023/05/27 01:18:59;;;;;;;10.87;4.27;;;;;;;;;;5074522;28;20278;-76
2023/05/27 01:21:33;;;;;;;9.17;4.20;;;;;;;;;;5076023;28;20219;-76
2023/05/27 01:24:06;;;;;;;11.10;4.03;;;;;;;;;;5080546;28;20185;-76
2023/05/27 01:26:43;;;;;;;9.43;3.63;;;;;;;;;;5082772;28;20273;-76
2023/05/27 01:29:14;;;;;;;15.43;4.27;;;;;;;;;;5078987;28;20208;-77
2023/05/27 01:31:49;;;;;;;11.10;3.90;;;;;;;;;;5087676;28;20180;-76
2023/05/27 01:34:17;;;;;;;10.07;3.90;;;;;;;;;;5081812;28;20184;-76
2023/05/27 01:36:49;;;;;;;9.37;4.00;;;;;;;;;;5077531;28;20181;-76
2023/05/27 01:39:16;;;;;;;11.20;3.40;;;;;;;;;;5058123;28;20642;-75
2023/05/27 01:41:51;;;;;;;11.13;4.07;;;;;;;;;;5080477;28;20636;-76
2023/05/27 01:44:18;;;;;;;10.63;3.60;;;;;;;;;;5073640;28;20675;-76
2023/05/27 01:46:47;;;;;;;8.63;3.60;;;;;;;;;;5090151;28;20182;-76
2023/05/27 01:49:13;;;;;;;9.40;3.50;;;;;;;;;;5075616;28;20221;-76
2023/05/27 01:51:40;;;;;;;11.50;3.67;;;;;;;;;;5083879;28;20184;-76
2023/05/27 01:54:09;;;;;;;7.80;3.37;;;;;;;;;;5064099;28;20540;-76
2023/05/27 01:56:36;;;;;;;9.47;3.60;;;;;;;;;;5074875;28;20216;-76
2023/05/27 01:59:07;;;;;;;20.40;4.07;;;;;;;;;;5079662;28;20251;-76
2023/05/27 02:01:34;;;;;;;10.60;3.80;;;;;;;;;;5073786;28;20221;-76
2023/05/27 02:04:01;;;;;;;10.80;3.93;;;;;;;;;;5067170;28;20587;-76
2023/05/27 02:06:32;;;;;;;11.97;4.00;;;;;;;;;;5060900;28;20213;-76
2023/05/27 02:08:58;;;;;;;11.00;3.90;;;;;;;;;;5080238;28;20204;-76
2023/05/27 02:11:25;;;;;;;11.50;3.70;;;;;;;;;;5061308;28;20737;-75
2023/05/27 02:13:55;;;;;;;12.67;3.93;;;;;;;;;;5076575;28;20181;-76
2023/05/27 02:16:25;;;;;;;8.83;3.50;;;;;;;;;;5080241;28;20189;-76
2023/05/27 02:18:54;;;;;;;9.83;3.73;;;;;;;;;;5082622;28;20204;-76
2023/05/27 02:21:23;;;;;;;13.07;3.83;;;;;;;;;;5060131;28;20212;-75
2023/05/27 02:23:50;;;;;;;11.07;4.00;;;;;;;;;;5072309;28;20218;-76
2023/05/27 02:26:19;;;;;;;11.83;3.80;;;;;;;;;;5085460;28;20192;-76
2023/05/27 02:28:46;;;;;;;9.67;3.90;;;;;;;;;;5084046;28;20205;-76
2023/05/27 02:31:15;;;;;;;10.67;3.57;;;;;;;;;;5074220;28;20208;-76
2023/05/27 02:33:46;;;;;;;10.00;3.80;;;;;;;;;;5080376;28;20195;-75
2023/05/27 02:36:13;;;;;;;10.20;3.60;;;;;;;;;;5080855;28;20267;-76
2023/05/27 02:38:45;;;;;;;9.77;4.20;;;;;;;;;;5076651;28;20699;-76
2023/05/27 02:41:12;;;;;;;11.30;4.10;;;;;;;;;;5074980;28;20204;-76
2023/05/27 02:43:41;;;;;;;10.73;3.83;;;;;;;;;;5084092;28;20264;-76
2023/05/27 02:46:10;;;;;;;9.97;3.93;;;;;;;;;;5086043;28;21138;-76
2023/05/27 02:48:41;;;;;;;7.60;3.37;;;;;;;;;;5083695;28;20299;-76
2023/05/27 02:51:11;;;;;;;9.93;3.77;;;;;;;;;;5082318;28;20200;-76
2023/05/27 02:53:38;;;;;;;13.07;4.57;;;;;;;;;;5079496;28;20597;-76
2023/05/27 02:56:07;;;;;;;10.17;3.70;;;;;;;;;;5079408;28;20272;-76
2023/05/27 02:58:34;;;;;;;12.30;3.60;;;;;;;;;;5077688;28;20207;-76
2023/05/27 03:01:03;;;;;;;8.73;3.30;;;;;;;;;;5082724;28;20687;-75
2023/05/27 03:03:34;;;;;;;10.60;3.77;;;;;;;;;;5084961;28;20188;-76
2023/05/27 03:06:00;;;;;;;8.53;3.10;;;;;;;;;;5078024;28;20177;-76
2023/05/27 03:08:31;;;;;;;9.07;3.30;;;;;;;;;;5082864;28;20201;-76
2023/05/27 03:11:00;;;;;;;9.17;3.20;;;;;;;;;;5088278;28;20573;-76
2023/05/27 03:13:28;;;;;;;8.47;3.50;;;;;;;;;;5073661;28;20238;-76
2023/05/27 03:15:58;;;;;;;10.27;3.50;;;;;;;;;;5079170;28;20180;-75
2023/05/27 03:18:32;;;;;;;8.40;3.37;;;;;;;;;;5081415;28;20577;-76
2023/05/27 03:21:01;;;;;;;9.43;3.70;;;;;;;;;;5077604;28;20266;-76
2023/05/27 03:23:30;;;;;;;10.63;3.50;;;;;;;;;;5063848;28;20560;-76
2023/05/27 03:25:57;;;;;;;7.23;3.13;;;;;;;;;;5077842;28;20178;-76
2023/05/27 03:28:24;;;;;;;9.37;3.27;;;;;;;;;;5082537;28;20687;-76
2023/05/27 03:30:50;;;;;;;10.60;3.67;;;;;;;;;;5075788;28;20191;-76
2023/05/27 03:33:37;;;;;;;8.33;3.47;;;;;;;;;;5065091;28;20184;-76
2023/05/27 03:36:07;;;;;;;11.87;3.43;;;;;;;;;;5079267;28;20181;-76
2023/05/27 03:38:33;;;;;;;7.50;3.10;;;;;;;;;;5073157;28;20213;-75
2023/05/27 03:41:04;;;;;;;10.37;3.57;;;;;;;;;;5086035;28;20213;-76
2023/05/27 03:43:31;;;;;;;9.33;3.17;;;;;;;;;;5086111;28;20535;-76
2023/05/27 03:45:58;;;;;;;11.40;3.80;;;;;;;;;;5082822;28;20996;-75
2023/05/27 03:48:25;;;;;;;10.90;3.70;;;;;;;;;;5066735;28;20216;-76
2023/05/27 03:50:52;;;;;;;8.50;3.10;;;;;;;;;;5079881;28;20260;-76
2023/05/27 03:53:18;;;;;;;8.47;3.37;;;;;;;;;;5082166;28;20192;-75
2023/05/27 03:55:45;;;;;;;9.97;3.53;;;;;;;;;;5075076;28;20207;-75
2023/05/27 03:58:16;;;;;;;8.13;3.23;;;;;;;;;;5087345;28;20201;-76
2023/05/27 04:00:47;;;;;;;9.00;3.23;;;;;;;;;;5079030;28;20205;-76
2023/05/27 04:03:17;;;;;;;10.00;3.67;;;;;;;;;;5071714;28;20188;-76
2023/05/27 04:05:48;;;;;;;9.80;3.47;;;;;;;;;;5073997;28;20213;-75
2023/05/27 04:08:15;;;;;;;9.80;3.53;;;;;;;;;;5088498;28;20197;-76
2023/05/27 04:10:41;;;;;;;11.87;3.73;;;;;;;;;;5068062;28;20242;-75
2023/05/27 04:13:10;;;;;;;10.27;3.70;;;;;;;;;;5084710;28;20177;-76
2023/05/27 04:15:36;;;;;;;11.27;3.63;;;;;;;;;;5083946;28;20215;-76
2023/05/27 04:18:04;;;;;;;9.57;3.30;;;;;;;;;;5080668;28;20204;-76
2023/05/27 04:20:48;;;;;;;9.67;3.73;;;;;;;;;;5062404;28;20244;-76
2023/05/27 04:23:17;;;;;;;8.83;3.47;;;;;;;;;;5077334;28;20180;-76
2023/05/27 04:25:48;;;;;;;8.93;3.47;;;;;;;;;;5086067;28;20543;-76
2023/05/27 04:28:15;;;;;;;9.80;3.60;;;;;;;;;;5066270;28;20205;-75
2023/05/27 04:30:54;;;;;;;10.97;3.40;;;;;;;;;;5073364;28;20181;-76
2023/05/27 04:33:43;;;;;;;10.30;3.77;;;;;;;;;;5075643;28;20216;-76
2023/05/27 04:36:16;;;;;;;7.60;3.17;;;;;;;;;;5076544;28;20200;-76
2023/05/27 04:39:15;;;;;;;7.13;2.93;;;;;;;;;;5078775;28;20301;-76
2023/05/27 04:41:46;;;;;;;6.43;2.90;;;;;;;;;;5071471;28;20228;-76
2023/05/27 04:44:28;;;;;;;11.10;3.80;;;;;;;;;;5060927;28;20185;-76
2023/05/27 04:46:58;;;;;;;8.33;3.23;;;;;;;;;;5067668;28;20655;-76
2023/05/27 04:49:25;;;;;;;7.40;3.10;;;;;;;;;;5072908;28;20208;-76
2023/05/27 04:51:54;;;;;;;8.67;3.30;;;;;;;;;;5082508;28;20207;-76
2023/05/27 04:54:23;;;;;;;6.97;3.20;;;;;;;;;;5080107;28;20188;-76
2023/05/27 04:56:53;;;;;;;11.33;3.50;;;;;;;;;;5076107;28;20189;-76
2023/05/27 05:02:25;;;;;;;6.80;2.97;;;;;;;;;;5075880;28;20699;-76
2023/05/27 05:05:10;;;;;;;9.83;3.50;;;;;;;;;;5061128;28;20196;-76
2023/05/27 05:07:37;;;;;;;9.20;3.20;;;;;;;;;;5071949;28;20674;-76
2023/05/27 05:10:13;;;;;;;8.37;3.30;;;;;;;;;;5055184;28;20216;-76
2023/05/27 05:12:48;;;;;;;11.70;3.13;;;;;;;;;;5059609;28;20176;-76
2023/05/27 05:15:14;;;;;;;7.80;2.90;;;;;;;;;;5083661;28;20184;-76
2023/05/27 05:17:43;;;;;;;8.23;3.20;;;;;;;;;;5069162;28;20217;-76
2023/05/27 05:20:14;;;;;;;6.83;3.30;;;;;;;;;;5061666;28;20205;-76
2023/05/27 05:22:44;;;;;;;12.10;3.50;;;;;;;;;;5081791;28;20180;-76
2023/05/27 05:25:12;;;;;;;7.83;3.27;;;;;;;;;;5064058;28;20185;-76
2023/05/27 05:27:46;;;;;;;6.87;2.90;;;;;;;;;;5076202;28;20234;-76
2023/05/27 05:30:13;;;;;;;7.80;3.13;;;;;;;;;;5078385;28;20189;-76
2023/05/27 05:32:45;;;;;;;8.73;3.30;;;;;;;;;;5074545;28;20193;-76
2023/05/27 05:35:21;;;;;;;9.73;3.13;;;;;;;;;;5060312;28;20205;-77
2023/05/27 05:38:00;;;;;;;7.97;3.40;;;;;;;;;;5083640;28;20200;-76
2023/05/27 05:40:31;;;;;;;9.17;3.43;;;;;;;;;;5083574;28;20232;-76
2023/05/27 05:43:22;;;;;;;7.90;3.00;;;;;;;;;;5076998;28;20201;-76
2023/05/27 05:45:59;;;;;;;8.70;3.30;;;;;;;;;;5072332;28;20177;-76
2023/05/27 05:48:27;;;;;;;8.27;3.47;;;;;;;;;;5075180;28;20197;-76
2023/05/27 05:50:53;;;;;;;11.93;3.90;;;;;;;;;;5053819;28;20295;-76
2023/05/27 05:53:20;;;;;;;8.90;3.23;;;;;;;;;;5089094;28;20195;-76
2023/05/27 05:55:53;;;;;;;9.50;3.50;;;;;;;;;;5084756;28;20214;-76
2023/05/27 05:58:36;;;;;;;8.17;3.33;;;;;;;;;;5082523;28;20197;-77
2023/05/27 06:01:11;;;;;;;7.20;3.10;;;;;;;;;;5102997;28;20226;-76
2023/05/27 06:03:43;;;;;;;14.87;4.00;;;;;;;;;;5084452;28;20185;-76
2023/05/27 06:06:25;;;;;;;8.80;3.20;;;;;;;;;;5078418;28;20577;-76
2023/05/27 06:09:14;;;;;;;10.07;3.47;;;;;;;;;;5067386;28;20242;-76
2023/05/27 06:11:43;;;;;;;9.33;3.50;;;;;;;;;;5078020;28;20185;-77
2023/05/27 06:14:22;;;;;;;11.43;3.80;;;;;;;;;;5074196;28;20227;-76
2023/05/27 06:16:49;;;;;;;10.07;3.20;;;;;;;;;;5073942;28;20609;-76
2023/05/27 06:19:16;;;;;;;9.70;3.53;;;;;;;;;;5076757;28;20217;-76
2023/05/27 06:21:53;;;;;;;8.70;3.43;;;;;;;;;;5080871;28;20618;-77
2023/05/27 06:24:50;;;;;;;9.87;3.40;;;;;;;;;;5076203;28;20187;-76
2023/05/27 06:27:26;;;;;;;9.60;3.60;;;;;;;;;;5081329;28;20219;-78
2023/05/27 06:29:52;;;;;;;10.37;3.57;;;;;;;;;;5081074;28;20204;-77
2023/05/27 06:32:33;;;;;;;9.00;3.30;;;;;;;;;;5063154;28;20220;-78
2023/05/27 06:35:03;;;;;;;8.73;3.23;;;;;;;;;;5063559;28;21490;-78
2023/05/27 06:37:36;;;;;;;9.00;3.40;;;;;;;;;;5069143;28;20239;-78
2023/05/27 06:40:03;;;;;;;6.60;3.03;;;;;;;;;;5079861;28;20196;-77
2023/05/27 06:42:30;;;;;;;11.60;3.53;;;;;;;;;;5080805;28;20183;-77
2023/05/27 06:45:32;;;;;;;11.83;3.60;;;;;;;;;;5075759;28;20183;-77
2023/05/27 06:48:22;;;;;;;9.73;3.20;;;;;;;;;;5081600;28;20188;-77
2023/05/27 06:50:49;;;;;;;10.07;3.53;;;;;;;;;;5086181;28;20328;-77
2023/05/27 06:53:18;;;;;;;11.00;3.57;;;;;;;;;;5079931;28;20303;-77
2023/05/27 06:55:59;;;;;;;12.50;4.00;;;;;;;;;;5059676;28;20222;-78
2023/05/27 06:58:46;;;;;;;8.57;3.70;;;;;;;;;;5082645;28;20202;-77
2023/05/27 07:01:15;;;;;;;11.63;3.40;;;;;;;;;;5082838;28;20205;-77
2023/05/27 07:03:48;;;;;;;10.30;3.40;;;;;;;;;;5081166;28;21424;-77
2023/05/27 07:06:26;;;;;;;7.43;3.17;;;;;;;;;;5085138;28;20177;-78
2023/05/27 07:08:58;;;;;;;11.60;3.37;;;;;;;;;;5066933;28;20283;-77
2023/05/27 07:11:39;;;;;;;7.93;3.00;;;;;;;;;;5084736;28;20194;-77
2023/05/27 07:14:10;;;;;;;10.23;3.40;;;;;;;;;;5081849;28;20263;-77
2023/05/27 07:16:39;;;;;;;9.77;3.53;;;;;;;;;;5069305;28;20207;-77
2023/05/27 07:19:10;;;;;;;10.83;3.50;;;;;;;;;;5067024;28;20222;-78
2023/05/27 07:21:51;;;;;;;7.33;3.07;;;;;;;;;;5079960;28;20176;-77
2023/05/27 07:24:21;;;;;;;11.87;3.80;;;;;;;;;;5067587;28;20207;-76
2023/05/27 07:26:48;;;;;;;8.00;3.00;;;;;;;;;;5085303;28;20181;-77
2023/05/27 07:29:17;;;;;;;12.23;3.60;;;;;;;;;;5081821;28;20254;-77
2023/05/27 07:31:53;;;;;;;8.00;3.40;;;;;;;;;;5089109;28;20187;-77
2023/05/27 07:34:23;;;;;;;7.07;3.40;;;;;;;;;;5078162;28;20250;-77
2023/05/27 07:36:52;;;;;;;8.90;3.50;;;;;;;;;;5088974;28;20184;-76
2023/05/27 07:39:19;;;;;;;7.83;3.70;;;;;;;;;;5078689;28;20612;-77
2023/05/27 07:41:46;;;;;;;8.37;3.40;;;;;;;;;;5067878;28;20189;-77
2023/05/27 07:44:13;;;;;;;7.97;3.30;;;;;;;;;;5065094;28;20180;-77
2023/05/27 07:46:49;;;;;;;9.33;3.67;;;;;;;;;;5090671;28;20195;-77
2023/05/27 07:49:18;;;;;;;12.17;5.10;;;;;;;;;;5078180;28;20687;-80
2023/05/27 07:52:07;;;;;;;11.67;3.83;;;;;;;;;;5065877;28;20189;-76
2023/05/27 07:54:34;;;;;;;9.00;3.40;;;;;;;;;;5078913;28;20180;-79
2023/05/27 07:57:08;;;;;;;18.57;3.83;;;;;;;;;;5066918;28;20299;-76
2023/05/27 07:59:38;;;;;;;9.37;3.53;;;;;;;;;;5053213;28;20222;-76
2023/05/27 08:02:05;;;;;;;16.37;3.70;;;;;;;;;;5080473;28;20213;-75
2023/05/27 08:04:32;;;;;;;9.93;3.40;;;;;;;;;;5081532;28;20203;-74
2023/05/27 08:07:30;;;;;;;6.87;3.33;;;;;;;;;;5071547;28;20684;-75
2023/05/27 08:10:10;;;;;;;7.67;3.40;;;;;;;;;;5080271;28;20190;-75
2023/05/27 08:13:08;;;;;;;14.80;3.63;;;;;;;;;;5046339;28;20288;-75
2023/05/27 08:15:59;;;;;;;7.70;3.60;;;;;;;;;;5073806;28;20199;-75
2023/05/27 08:18:50;;;;;;;11.10;3.63;;;;;;;;;;5059783;28;20642;-75
2023/05/27 08:21:24;;;;;;;9.73;3.40;;;;;;;;;;5082695;28;20220;-76
2023/05/27 08:24:12;;;;;;;13.20;3.47;;;;;;;;;;5083484;28;20197;-75
2023/05/27 08:27:18;;;;;;;8.00;3.07;;;;;;;;;;5065069;28;20261;-75
2023/05/27 08:30:03;;;;;;;10.80;3.60;;;;;;;;;;5081504;28;20568;-76
2023/05/27 08:32:48;;;;;;;7.93;3.27;;;;;;;;;;5082604;28;20261;-75
2023/05/27 08:35:16;;;;;;;7.13;3.10;;;;;;;;;;5075771;28;20196;-75
2023/05/27 08:37:46;;;;;;;10.33;3.77;;;;;;;;;;5082247;28;20850;-75
2023/05/27 08:40:19;;;;;;;8.97;3.80;;;;;;;;;;5080132;28;20643;-75
2023/05/27 08:42:50;;;;;;;10.20;3.77;;;;;;;;;;5082776;28;20192;-75
2023/05/27 08:45:19;;;;;;;8.30;3.37;;;;;;;;;;5083018;28;20546;-75
2023/05/27 08:47:55;;;;;;;9.07;3.43;;;;;;;;;;5081458;28;20854;-77
2023/05/27 08:50:29;;;;;;;9.60;3.37;;;;;;;;;;5063346;28;20664;-78
2023/05/27 08:52:58;;;;;;;8.67;3.60;;;;;;;;;;5080281;28;20729;-75
2023/05/27 08:55:28;;;;;;;9.60;3.40;;;;;;;;;;5067313;28;20180;-78
2023/05/27 08:57:56;;;;;;;10.90;3.90;;;;;;;;;;5082905;28;20199;-75
2023/05/27 09:00:37;;;;;;;;;;;;;;;;;;;;;
2023/05/27 09:03:27;;;;;;;10.47;3.57;;;;;;;;;;5081067;28;20200;-75
2023/05/27 09:05:57;;;;;;;8.27;3.97;;;;;;;;;;5077781;28;20187;-77
2023/05/27 09:08:26;;;;;;;8.97;3.97;;;;;;;;;;5081448;28;20358;-76
2023/05/27 09:10:57;;;;;;;10.43;4.10;;;;;;;;;;5082766;28;20237;-76
2023/05/27 09:13:28;;;;;;;11.03;3.80;;;;;;;;;;5079818;28;20853;-76
2023/05/27 09:16:02;;;;;;;19.03;3.90;;;;;;;;;;5083468;28;20184;-75
2023/05/27 09:18:30;;;;;;;11.73;4.07;;;;;;;;;;5086988;28;20196;-75
2023/05/27 09:21:02;;;;;;;10.17;3.60;;;;;;;;;;5083067;28;20207;-77
2023/05/27 09:23:28;;;;;;;9.27;3.93;;;;;;;;;;5063710;28;20185;-75
2023/05/27 09:26:00;;;;;;;10.73;3.77;;;;;;;;;;5066052;28;20206;-76
2023/05/27 09:28:37;;;;;;;11.87;4.47;;;;;;;;;;5086143;28;20196;-76
2023/05/27 09:31:12;;;;;;;9.60;3.73;;;;;;;;;;5084164;28;20254;-75
2023/05/27 09:33:42;;;;;;;9.47;3.70;;;;;;;;;;5074094;28;20181;-76
2023/05/27 09:36:13;;;;;;;7.93;3.63;;;;;;;;;;5086734;28;20181;-75
2023/05/27 09:38:45;;;;;;;9.03;3.93;;;;;;;;;;5074079;28;20295;-77
2023/05/27 09:41:25;;;;;;;7.93;3.90;;;;;;;;;;5085997;28;20257;-75
2023/05/27 09:43:55;;;;;;;18.37;5.80;;;;;;;;;;5093834;28;20263;-73
2023/05/27 09:46:26;;;;;;;9.90;4.40;;;;;;;;;;5084728;28;20200;-74
2023/05/27 09:48:54;;;;;;;8.67;3.60;;;;;;;;;;5080911;28;20196;-73
2023/05/27 09:51:26;;;;;;;10.90;4.67;;;;;;;;;;5080994;28;20297;-73
2023/05/27 09:54:03;;;;;;;9.73;4.20;;;;;;;;;;5085673;28;20179;-73
2023/05/27 09:56:30;;;;;;;9.47;3.97;;;;;;;;;;5102842;28;20188;-77
2023/05/27 09:58:57;;;;;;;8.67;3.63;;;;;;;;;;5077260;28;20273;-74
2023/05/27 10:01:30;;;;;;;9.87;3.90;;;;;;;;;;5078174;28;20219;-78
2023/05/27 10:03:57;;;;;;;9.70;3.53;;;;;;;;;;5081364;28;20187;-75
2023/05/27 10:06:29;;;;;;;8.73;3.73;;;;;;;;;;5086875;28;20191;-72
2023/05/27 10:09:05;;;;;;;11.37;3.90;;;;;;;;;;5084066;28;20343;-73
2023/05/27 10:11:36;;;;;;;8.30;3.60;;;;;;;;;;5081256;28;20257;-76
2023/05/27 10:14:04;;;;;;;10.37;4.13;;;;;;;;;;5088704;28;20209;-73
2023/05/27 10:16:40;;;;;;;10.00;4.00;;;;;;;;;;5089382;28;20184;-73
2023/05/27 10:19:10;;;;;;;11.47;4.17;;;;;;;;;;5085025;28;20292;-75
2023/05/27 10:21:43;;;;;;;9.87;3.90;;;;;;;;;;5083327;28;20644;-73
2023/05/27 10:24:22;;;;;;;8.73;4.27;;;;;;;;;;5086298;28;20290;-77
2023/05/27 10:26:48;;;;;;;9.03;3.60;;;;;;;;;;5084564;28;20177;-76
2023/05/27 10:29:20;;;;;;;8.03;3.80;;;;;;;;;;5085724;28;20200;-74
2023/05/27 10:31:47;;;;;;;7.30;3.40;;;;;;;;;;5076690;28;20262;-74
2023/05/27 10:34:15;;;;;;;7.50;3.63;;;;;;;;;;5081517;28;20207;-74
2023/05/27 10:36:48;;;;;;;6.30;3.50;;;;;;;;;;5075452;28;20569;-74
2023/05/27 10:39:20;;;;;;;9.23;3.53;;;;;;;;;;5083427;28;20205;-76
2023/05/27 10:41:53;;;;;;;7.80;3.63;;;;;;;;;;5084545;28;20193;-74
2023/05/27 10:44:28;;;;;;;9.10;3.60;;;;;;;;;;5089200;28;20178;-74
2023/05/27 10:47:11;;;;;;;8.63;3.90;;;;;;;;;;5092843;28;20177;-74
2023/05/27 10:49:46;;;;;;;10.50;4.00;;;;;;;;;;5098626;28;20178;-74
2023/05/27 10:52:13;;;;;;;10.30;3.50;;;;;;;;;;5089571;28;20202;-74
2023/05/27 10:54:40;;;;;;;10.23;3.60;;;;;;;;;;5082747;28;20195;-75
2023/05/27 10:57:07;;;;;;;9.33;3.63;;;;;;;;;;5078292;28;20202;-75
2023/05/27 10:59:54;;;;;;;7.40;3.80;;;;;;;;;;5084675;28;20210;-74
2023/05/27 11:02:21;;;;;;;8.77;3.93;;;;;;;;;;5080187;28;20200;-74
2023/05/27 11:04:52;;;;;;;14.57;3.80;;;;;;;;;;5089952;28;20187;-77
2023/05/27 11:07:19;;;;;;;12.60;4.37;;;;;;;;;;5083938;28;20183;-74
2023/05/27 11:09:47;;;;;;;8.03;3.97;;;;;;;;;;5087985;28;20220;-75
2023/05/27 11:12:19;;;;;;;8.07;3.90;;;;;;;;;;5079684;28;20177;-76
2023/05/27 11:14:56;;;;;;;12.37;3.93;;;;;;;;;;5072104;28;20185;-75
2023/05/27 11:17:28;;;;;;;7.07;3.77;;;;;;;;;;5051145;28;20235;-76
2023/05/27 11:19:58;;;;;;;8.60;3.90;;;;;;;;;;5078440;28;20242;-77
2023/05/27 11:22:25;;;;;;;7.87;3.47;;;;;;;;;;5086138;28;20176;-76
2023/05/27 11:25:00;;;;;;;9.10;3.90;;;;;;;;;;5071477;28;20208;-78
2023/05/27 11:27:37;;;;;;;7.23;4.00;;;;;;;;;;5092820;28;20200;-79
2023/05/27 11:30:11;;;;;;;9.67;3.70;;;;;;;;;;5079482;28;20176;-77
2023/05/27 11:32:38;;;;;;;7.60;3.70;;;;;;;;;;5080520;28;20238;-76
2023/05/27 11:35:06;;;;;;;10.53;4.10;;;;;;;;;;5058357;28;20751;-77
2023/05/27 11:37:34;;;;;;;7.33;3.87;;;;;;;;;;5086954;28;20215;-76
2023/05/27 11:40:01;;;;;;;8.13;3.73;;;;;;;;;;5087911;28;20698;-75
2023/05/27 11:42:29;;;;;;;8.43;3.80;;;;;;;;;;5089680;28;20172;-75
2023/05/27 11:44:56;;;;;;;7.37;3.60;;;;;;;;;;5084943;28;20187;-76
2023/05/27 11:47:23;;;;;;;10.70;4.23;;;;;;;;;;5080925;28;20231;-76
2023/05/27 11:49:50;;;;;;;8.60;3.83;;;;;;;;;;5087872;28;20197;-76
2023/05/27 11:52:17;;;;;;;12.10;3.90;;;;;;;;;;5079166;28;20193;-76
2023/05/27 11:54:44;;;;;;;8.50;3.80;;;;;;;;;;5077835;28;20196;-76
2023/05/27 11:57:12;;;;;;;6.33;3.33;;;;;;;;;;5083532;28;20193;-75
2023/05/27 11:59:38;;;;;;;5.87;3.57;;;;;;;;;;5088444;28;20212;-76
2023/05/27 12:02:06;;;;;;;7.60;3.80;;;;;;;;;;5073984;28;20193;-76
2023/05/27 12:04:32;;;;;;;7.47;3.60;;;;;;;;;;5083708;28;20184;-76
2023/05/27 12:07:00;;;;;;;8.23;3.47;;;;;;;;;;5073027;28;20199;-76
2023/05/27 12:09:27;;;;;;;8.63;3.60;;;;;;;;;;5078900;28;20196;-76
2023/05/27 12:11:53;;;;;;;7.67;4.07;;;;;;;;;;5085071;28;20186;-76
2023/05/27 12:14:24;;;;;;;6.57;3.43;;;;;;;;;;5087658;28;20240;-76
2023/05/27 12:16:51;;;;;;;6.17;3.57;;;;;;;;;;5087778;28;20188;-76
2023/05/27 12:19:17;;;;;;;5.37;3.57;;;;;;;;;;5092238;28;20287;-76
2023/05/27 12:21:43;;;;;;;9.07;3.53;;;;;;;;;;5072679;28;20718;-75
2023/05/27 12:24:09;;;;;;;10.00;3.70;;;;;;;;;;5079358;28;20186;-75
2023/05/27 12:26:37;;;;;;;6.47;3.63;;;;;;;;;;5094123;28;20188;-76
2023/05/27 12:29:03;;;;;;;6.93;3.60;;;;;;;;;;5075879;28;20231;-75
2023/05/27 12:31:29;;;;;;;7.50;3.87;;;;;;;;;;5085233;28;20194;-77
2023/05/27 12:33:57;;;;;;;7.53;3.67;;;;;;;;;;5076391;28;20191;-75
2023/05/27 12:36:23;;;;;;;6.73;3.63;;;;;;;;;;5087167;28;20526;-76
2023/05/27 12:38:50;;;;;;;6.73;3.60;;;;;;;;;;5087620;28;20197;-78
2023/05/27 12:41:16;;;;;;;7.73;3.90;;;;;;;;;;5101923;28;20697;-75
2023/05/27 12:43:42;;;;;;;5.60;3.60;;;;;;;;;;5079133;28;20308;-72
2023/05/27 12:46:08;;;;;;;8.73;3.70;;;;;;;;;;5083461;28;20225;-73
2023/05/27 12:48:38;;;;;;;7.07;4.07;;;;;;;;;;5083239;28;20228;-74
2023/05/27 12:51:06;;;;;;;7.83;4.20;;;;;;;;;;5081868;28;20680;-73
2023/05/27 12:53:32;;;;;;;5.87;3.50;;;;;;;;;;5083945;28;20249;-73
2023/05/27 12:55:59;;;;;;;8.70;4.13;;;;;;;;;;5080743;28;20181;-73
2023/05/27 12:58:25;;;;;;;7.20;4.00;;;;;;;;;;5080407;28;20204;-73
2023/05/27 13:00:51;;;;;;;7.87;4.20;;;;;;;;;;5076207;28;20255;-73
2023/05/27 13:03:18;;;;;;;7.30;3.80;;;;;;;;;;5085548;28;20192;-73
2023/05/27 13:05:44;;;;;;;6.80;3.67;;;;;;;;;;5089190;28;20188;-73
2023/05/27 13:08:10;;;;;;;11.27;4.13;;;;;;;;;;5084748;28;20207;-73
2023/05/27 13:10:36;;;;;;;5.50;3.53;;;;;;;;;;5083456;28;20191;-73
2023/05/27 13:13:03;;;;;;;6.67;3.80;;;;;;;;;;5087485;28;20182;-72
2023/05/27 13:15:29;;;;;;;6.23;3.60;;;;;;;;;;5084840;28;20213;-72
2023/05/27 13:17:56;;;;;;;8.07;3.40;;;;;;;;;;5089966;28;20297;-73
2023/05/27 13:20:23;;;;;;;8.93;4.00;;;;;;;;;;5096522;28;20614;-73
2023/05/27 13:22:49;;;;;;;6.70;3.13;;;;;;;;;;5096729;28;20174;-72
2023/05/27 13:25:16;;;;;;;7.53;3.50;;;;;;;;;;5106339;28;20215;-72
2023/05/27 13:27:44;;;;;;;5.20;3.57;;;;;;;;;;5085862;28;20289;-71
2023/05/27 13:30:12;;;;;;;6.23;3.40;;;;;;;;;;5101588;28;20184;-73
2023/05/27 13:32:38;;;;;;;6.80;3.70;;;;;;;;;;5094544;28;20191;-72
2023/05/27 13:35:04;;;;;;;6.57;3.50;;;;;;;;;;5087398;28;20217;-72
2023/05/27 13:37:31;;;;;;;5.67;3.10;;;;;;;;;;5088647;28;20240;-72
2023/05/27 13:39:58;;;;;;;6.73;3.67;;;;;;;;;;5089568;28;20244;-72
2023/05/27 13:42:24;;;;;;;10.07;3.70;;;;;;;;;;5094262;28;20742;-72
2023/05/27 13:44:50;;;;;;;7.73;4.17;;;;;;;;;;5090893;28;20230;-72
2023/05/27 13:47:16;;;;;;;9.87;4.03;;;;;;;;;;5076583;28;20546;-72
2023/05/27 13:49:44;;;;;;;5.23;3.50;;;;;;;;;;5072833;28;20180;-72
2023/05/27 13:52:10;;;;;;;8.33;3.70;;;;;;;;;;5077161;28;20221;-72
2023/05/27 13:54:37;;;;;;;7.57;3.43;;;;;;;;;;5099754;28;20268;-72
2023/05/27 13:57:04;;;;;;;7.57;3.60;;;;;;;;;;5106028;28;20240;-72
2023/05/27 13:59:31;;;;;;;7.10;3.30;;;;;;;;;;5068634;28;20211;-72
2023/05/27 14:01:57;;;;;;;6.33;3.30;;;;;;;;;;5078660;28;20235;-72
2023/05/27 14:04:23;;;;;;;5.53;3.27;;;;;;;;;;5080919;28;20538;-72
2023/05/27 14:06:50;;;;;;;5.73;3.10;;;;;;;;;;5089990;28;20317;-72
2023/05/27 14:09:17;;;;;;;7.30;3.27;;;;;;;;;;5078280;28;20202;-72
2023/05/27 14:11:43;;;;;;;5.23;2.90;;;;;;;;;;5083259;28;20739;-72
2023/05/27 14:14:09;;;;;;;6.23;3.40;;;;;;;;;;5085788;28;20686;-72
2023/05/27 14:16:35;;;;;;;8.43;3.40;;;;;;;;;;5098820;28;20633;-72
2023/05/27 14:19:02;;;;;;;4.07;3.03;;;;;;;;;;5108622;28;20686;-72
2023/05/27 14:21:28;;;;;;;4.77;3.00;;;;;;;;;;5090513;28;20526;-72
2023/05/27 14:23:55;;;;;;;5.40;3.20;;;;;;;;;;5097426;28;20651;-73
2023/05/27 14:26:21;;;;;;;9.23;3.60;;;;;;;;;;5078967;28;20183;-72
2023/05/27 14:28:47;;;;;;;6.00;3.30;;;;;;;;;;5107231;28;20199;-72
2023/05/27 14:31:14;;;;;;;5.30;3.20;;;;;;;;;;5101784;28;20190;-72
2023/05/27 14:33:40;;;;;;;7.13;3.60;;;;;;;;;;5087708;28;20197;-72
2023/05/27 14:36:07;;;;;;;5.97;3.50;;;;;;;;;;5088630;28;20176;-73
2023/05/27 14:38:33;;;;;;;6.50;3.47;;;;;;;;;;5088285;28;20209;-72
2023/05/27 14:40:59;;;;;;;6.80;3.80;;;;;;;;;;5095450;28;20315;-72
2023/05/27 14:43:25;;;;;;;7.13;3.73;;;;;;;;;;5092223;28;20263;-72
2023/05/27 14:45:51;;;;;;;5.87;3.40;;;;;;;;;;5078651;28;20730;-72
2023/05/27 14:48:17;;;;;;;6.07;2.97;;;;;;;;;;5086006;28;20726;-73
2023/05/27 14:50:44;;;;;;;5.60;3.30;;;;;;;;;;5085064;28;20186;-72
2023/05/27 14:53:10;;;;;;;8.83;3.20;;;;;;;;;;5088160;28;20607;-72
2023/05/27 14:55:36;;;;;;;6.23;3.20;;;;;;;;;;5084228;28;20263;-72
2023/05/27 14:58:05;;;;;;;6.00;3.40;;;;;;;;;;5096551;28;20206;-72
2023/05/27 15:00:31;;;;;;;6.07;3.37;;;;;;;;;;5072110;28;20293;-72
2023/05/27 15:02:57;;;;;;;5.97;3.27;;;;;;;;;;5082515;28;20216;-72